sensor_id;sensor_type;location;lat;lon;timestamp;P1;durP1;ratioP1;P2;durP2;ratioP2
12202;SDS011;6164;42.178;24.622;2023-04-25T00:00:35;3.05;;;2.50;;
12202;SDS011;6164;42.178;24.622;2023-04-25T00:03:02;2.63;;;2.20;;
12202;SDS011;6164;42.178;24.622;2023-04-25T00:05:30;3.65;;;2.33;;
12202;SDS011;6164;42.178;24.622;2023-04-25T00:07:57;2.72;;;2.20;;
12202;SDS011;6164;42.178;24.622;2023-04-25T00:10:24;3.45;;;2.58;;
12202;SDS011;6164;42.178;24.622;2023-04-25T00:12:52;3.10;;;2.03;;
12202;SDS011;6164;42.178;24.622;2023-04-25T00:15:18;3.22;;;2.35;;
12202;SDS011;6164;42.178;24.622;2023-04-25T00:17:45;2.83;;;2.20;;
12202;SDS011;6164;42.178;24.622;2023-04-25T00:20:12;2.45;;;2.22;;
12202;SDS011;6164;42.178;24.622;2023-04-25T00:22:39;3.95;;;2.33;;
12202;SDS011;6164;42.178;24.622;2023-04-25T00:25:06;4.15;;;2.03;;
12202;SDS011;6164;42.178;24.622;2023-04-25T00:27:33;2.33;;;2.13;;
12202;SDS011;6164;42.178;24.622;2023-04-25T00:30:01;3.20;;;2.30;;
12202;SDS011;6164;42.178;24.622;2023-04-25T00:32:28;2.38;;;2.05;;
12202;SDS011;6164;42.178;24.622;2023-04-25T00:34:55;2.63;;;2.40;;
12202;SDS011;6164;42.178;24.622;2023-04-25T00:37:22;2.08;;;1.88;;
12202;SDS011;6164;42.178;24.622;2023-04-25T00:39:49;2.38;;;2.00;;
12202;SDS011;6164;42.178;24.622;2023-04-25T00:42:18;2.30;;;2.10;;
12202;SDS011;6164;42.178;24.622;2023-04-25T00:44:45;3.63;;;2.40;;
12202;SDS011;6164;42.178;24.622;2023-04-25T00:47:14;4.80;;;2.92;;
12202;SDS011;6164;42.178;24.622;2023-04-25T00:49:41;3.20;;;2.60;;
12202;SDS011;6164;42.178;24.622;2023-04-25T00:52:08;3.17;;;2.88;;
12202;SDS011;6164;42.178;24.622;2023-04-25T00:54:35;2.65;;;2.45;;
12202;SDS011;6164;42.178;24.622;2023-04-25T00:57:02;3.92;;;2.65;;
12202;SDS011;6164;42.178;24.622;2023-04-25T00:59:29;3.75;;;2.53;;
12202;SDS011;6164;42.178;24.622;2023-04-25T01:01:57;5.40;;;3.00;;
12202;SDS011;6164;42.178;24.622;2023-04-25T01:04:26;2.90;;;2.60;;
12202;SDS011;6164;42.178;24.622;2023-04-25T01:06:54;2.70;;;2.50;;
12202;SDS011;6164;42.178;24.622;2023-04-25T01:09:20;3.30;;;2.97;;
12202;SDS011;6164;42.178;24.622;2023-04-25T01:11:48;3.40;;;3.08;;
12202;SDS011;6164;42.178;24.622;2023-04-25T01:14:15;4.40;;;3.45;;
12202;SDS011;6164;42.178;24.622;2023-04-25T01:16:42;3.97;;;3.53;;
12202;SDS011;6164;42.178;24.622;2023-04-25T01:19:10;3.35;;;3.05;;
12202;SDS011;6164;42.178;24.622;2023-04-25T01:21:38;4.38;;;2.95;;
12202;SDS011;6164;42.178;24.622;2023-04-25T01:24:05;4.15;;;3.67;;
12202;SDS011;6164;42.178;24.622;2023-04-25T01:26:33;4.00;;;3.42;;
12202;SDS011;6164;42.178;24.622;2023-04-25T01:29:00;4.07;;;3.17;;
12202;SDS011;6164;42.178;24.622;2023-04-25T01:31:27;3.88;;;3.30;;
12202;SDS011;6164;42.178;24.622;2023-04-25T01:33:54;5.93;;;3.67;;
12202;SDS011;6164;42.178;24.622;2023-04-25T01:36:21;3.90;;;3.50;;
12202;SDS011;6164;42.178;24.622;2023-04-25T01:38:49;4.43;;;3.35;;
12202;SDS011;6164;42.178;24.622;2023-04-25T01:41:16;4.03;;;3.60;;
12202;SDS011;6164;42.178;24.622;2023-04-25T01:43:43;4.88;;;4.05;;
12202;SDS011;6164;42.178;24.622;2023-04-25T01:46:10;4.57;;;4.15;;
12202;SDS011;6164;42.178;24.622;2023-04-25T01:48:37;4.53;;;3.90;;
12202;SDS011;6164;42.178;24.622;2023-04-25T01:51:04;5.03;;;4.20;;
12202;SDS011;6164;42.178;24.622;2023-04-25T01:53:31;4.55;;;3.75;;
12202;SDS011;6164;42.178;24.622;2023-04-25T01:55:59;4.20;;;3.80;;
12202;SDS011;6164;42.178;24.622;2023-04-25T01:58:25;4.50;;;3.95;;
12202;SDS011;6164;42.178;24.622;2023-04-25T02:00:52;5.57;;;3.95;;
12202;SDS011;6164;42.178;24.622;2023-04-25T02:03:19;4.20;;;3.80;;
12202;SDS011;6164;42.178;24.622;2023-04-25T02:05:46;5.60;;;4.10;;
12202;SDS011;6164;42.178;24.622;2023-04-25T02:08:12;4.60;;;4.20;;
12202;SDS011;6164;42.178;24.622;2023-04-25T02:10:39;5.22;;;3.92;;
12202;SDS011;6164;42.178;24.622;2023-04-25T02:13:07;4.35;;;3.50;;
12202;SDS011;6164;42.178;24.622;2023-04-25T02:15:34;4.38;;;3.97;;
12202;SDS011;6164;42.178;24.622;2023-04-25T02:18:01;5.10;;;3.83;;
12202;SDS011;6164;42.178;24.622;2023-04-25T02:20:28;5.28;;;3.88;;
12202;SDS011;6164;42.178;24.622;2023-04-25T02:22:55;4.28;;;3.88;;
12202;SDS011;6164;42.178;24.622;2023-04-25T02:25:22;5.72;;;4.35;;
12202;SDS011;6164;42.178;24.622;2023-04-25T02:27:49;5.20;;;3.78;;
12202;SDS011;6164;42.178;24.622;2023-04-25T02:30:17;5.50;;;3.80;;
12202;SDS011;6164;42.178;24.622;2023-04-25T02:32:44;5.00;;;3.75;;
12202;SDS011;6164;42.178;24.622;2023-04-25T02:35:11;5.10;;;3.88;;
12202;SDS011;6164;42.178;24.622;2023-04-25T02:37:38;3.97;;;3.58;;
12202;SDS011;6164;42.178;24.622;2023-04-25T02:40:06;4.25;;;3.75;;
12202;SDS011;6164;42.178;24.622;2023-04-25T02:42:34;3.83;;;3.47;;
12202;SDS011;6164;42.178;24.622;2023-04-25T02:45:01;4.18;;;3.72;;
12202;SDS011;6164;42.178;24.622;2023-04-25T02:47:29;5.07;;;4.57;;
12202;SDS011;6164;42.178;24.622;2023-04-25T02:49:56;5.10;;;4.47;;
12202;SDS011;6164;42.178;24.622;2023-04-25T02:52:22;4.50;;;3.97;;
12202;SDS011;6164;42.178;24.622;2023-04-25T02:54:49;5.95;;;4.20;;
12202;SDS011;6164;42.178;24.622;2023-04-25T02:57:16;12.05;;;4.80;;
12202;SDS011;6164;42.178;24.622;2023-04-25T02:59:43;5.53;;;4.93;;
12202;SDS011;6164;42.178;24.622;2023-04-25T03:02:10;5.78;;;4.45;;
12202;SDS011;6164;42.178;24.622;2023-04-25T03:04:38;9.98;;;5.25;;
12202;SDS011;6164;42.178;24.622;2023-04-25T03:07:04;6.82;;;5.45;;
12202;SDS011;6164;42.178;24.622;2023-04-25T03:09:31;7.05;;;5.03;;
12202;SDS011;6164;42.178;24.622;2023-04-25T03:11:58;5.70;;;5.10;;
12202;SDS011;6164;42.178;24.622;2023-04-25T03:14:25;5.55;;;5.05;;
12202;SDS011;6164;42.178;24.622;2023-04-25T03:16:52;7.90;;;6.55;;
12202;SDS011;6164;42.178;24.622;2023-04-25T03:19:18;7.10;;;6.40;;
12202;SDS011;6164;42.178;24.622;2023-04-25T03:21:47;8.18;;;6.43;;
12202;SDS011;6164;42.178;24.622;2023-04-25T03:24:13;8.38;;;7.00;;
12202;SDS011;6164;42.178;24.622;2023-04-25T03:26:40;7.40;;;6.60;;
12202;SDS011;6164;42.178;24.622;2023-04-25T03:29:07;9.55;;;7.47;;
12202;SDS011;6164;42.178;24.622;2023-04-25T03:31:34;10.52;;;8.07;;
12202;SDS011;6164;42.178;24.622;2023-04-25T03:34:00;10.18;;;8.80;;
12202;SDS011;6164;42.178;24.622;2023-04-25T03:36:27;8.85;;;7.93;;
12202;SDS011;6164;42.178;24.622;2023-04-25T03:38:55;8.95;;;8.00;;
12202;SDS011;6164;42.178;24.622;2023-04-25T03:41:22;9.70;;;7.45;;
12202;SDS011;6164;42.178;24.622;2023-04-25T03:43:49;7.53;;;6.72;;
12202;SDS011;6164;42.178;24.622;2023-04-25T03:46:15;8.10;;;6.88;;
12202;SDS011;6164;42.178;24.622;2023-04-25T03:48:42;8.30;;;7.00;;
12202;SDS011;6164;42.178;24.622;2023-04-25T03:51:09;8.45;;;7.40;;
12202;SDS011;6164;42.178;24.622;2023-04-25T03:53:35;8.55;;;7.30;;
12202;SDS011;6164;42.178;24.622;2023-04-25T03:56:04;8.45;;;6.93;;
12202;SDS011;6164;42.178;24.622;2023-04-25T03:58:31;10.13;;;6.50;;
12202;SDS011;6164;42.178;24.622;2023-04-25T04:00:58;8.23;;;7.40;;
12202;SDS011;6164;42.178;24.622;2023-04-25T04:03:24;9.15;;;7.10;;
12202;SDS011;6164;42.178;24.622;2023-04-25T04:05:51;7.53;;;6.72;;
12202;SDS011;6164;42.178;24.622;2023-04-25T04:08:18;8.60;;;7.45;;
12202;SDS011;6164;42.178;24.622;2023-04-25T04:10:45;10.10;;;7.45;;
12202;SDS011;6164;42.178;24.622;2023-04-25T04:13:13;9.07;;;7.93;;
12202;SDS011;6164;42.178;24.622;2023-04-25T04:15:39;9.30;;;7.55;;
12202;SDS011;6164;42.178;24.622;2023-04-25T04:18:06;9.52;;;7.40;;
12202;SDS011;6164;42.178;24.622;2023-04-25T04:20:33;10.15;;;8.80;;
12202;SDS011;6164;42.178;24.622;2023-04-25T04:23:00;10.38;;;8.40;;
12202;SDS011;6164;42.178;24.622;2023-04-25T04:25:26;9.43;;;8.35;;
12202;SDS011;6164;42.178;24.622;2023-04-25T04:27:53;9.57;;;8.43;;
12202;SDS011;6164;42.178;24.622;2023-04-25T04:30:22;9.30;;;7.00;;
12202;SDS011;6164;42.178;24.622;2023-04-25T04:32:50;9.88;;;7.55;;
12202;SDS011;6164;42.178;24.622;2023-04-25T04:35:17;8.13;;;7.00;;
12202;SDS011;6164;42.178;24.622;2023-04-25T04:37:43;9.55;;;7.68;;
12202;SDS011;6164;42.178;24.622;2023-04-25T04:40:11;9.60;;;7.68;;
12202;SDS011;6164;42.178;24.622;2023-04-25T04:42:40;8.27;;;7.03;;
12202;SDS011;6164;42.178;24.622;2023-04-25T04:45:07;8.50;;;7.47;;
12202;SDS011;6164;42.178;24.622;2023-04-25T04:47:36;9.65;;;8.60;;
12202;SDS011;6164;42.178;24.622;2023-04-25T04:50:05;11.10;;;8.77;;
12202;SDS011;6164;42.178;24.622;2023-04-25T04:52:32;10.35;;;9.25;;
12202;SDS011;6164;42.178;24.622;2023-04-25T04:54:59;13.57;;;8.93;;
12202;SDS011;6164;42.178;24.622;2023-04-25T04:57:25;11.48;;;8.15;;
12202;SDS011;6164;42.178;24.622;2023-04-25T04:59:52;9.88;;;7.38;;
12202;SDS011;6164;42.178;24.622;2023-04-25T05:02:19;10.18;;;8.07;;
12202;SDS011;6164;42.178;24.622;2023-04-25T05:04:47;11.38;;;8.77;;
12202;SDS011;6164;42.178;24.622;2023-04-25T05:07:15;10.57;;;8.60;;
12202;SDS011;6164;42.178;24.622;2023-04-25T05:09:42;10.50;;;8.45;;
12202;SDS011;6164;42.178;24.622;2023-04-25T05:12:08;10.13;;;7.88;;
12202;SDS011;6164;42.178;24.622;2023-04-25T05:14:35;9.57;;;8.13;;
12202;SDS011;6164;42.178;24.622;2023-04-25T05:17:02;9.07;;;8.18;;
12202;SDS011;6164;42.178;24.622;2023-04-25T05:19:31;9.68;;;8.68;;
12202;SDS011;6164;42.178;24.622;2023-04-25T05:21:59;10.63;;;8.57;;
12202;SDS011;6164;42.178;24.622;2023-04-25T05:24:26;10.65;;;8.55;;
12202;SDS011;6164;42.178;24.622;2023-04-25T05:26:53;9.40;;;8.10;;
12202;SDS011;6164;42.178;24.622;2023-04-25T05:29:20;9.10;;;8.02;;
12202;SDS011;6164;42.178;24.622;2023-04-25T05:31:46;10.73;;;7.85;;
12202;SDS011;6164;42.178;24.622;2023-04-25T05:34:13;10.55;;;7.97;;
12202;SDS011;6164;42.178;24.622;2023-04-25T05:36:41;8.25;;;7.30;;
12202;SDS011;6164;42.178;24.622;2023-04-25T05:39:09;9.27;;;7.95;;
12202;SDS011;6164;42.178;24.622;2023-04-25T05:41:36;8.90;;;7.70;;
12202;SDS011;6164;42.178;24.622;2023-04-25T05:44:03;10.65;;;8.15;;
12202;SDS011;6164;42.178;24.622;2023-04-25T05:46:30;8.57;;;7.68;;
12202;SDS011;6164;42.178;24.622;2023-04-25T05:48:57;8.95;;;8.02;;
12202;SDS011;6164;42.178;24.622;2023-04-25T05:51:24;9.07;;;8.15;;
12202;SDS011;6164;42.178;24.622;2023-04-25T05:53:51;10.00;;;7.50;;
12202;SDS011;6164;42.178;24.622;2023-04-25T05:56:19;8.38;;;6.82;;
12202;SDS011;6164;42.178;24.622;2023-04-25T05:58:45;7.25;;;6.55;;
12202;SDS011;6164;42.178;24.622;2023-04-25T06:01:12;11.40;;;6.50;;
12202;SDS011;6164;42.178;24.622;2023-04-25T06:03:39;6.97;;;6.05;;
12202;SDS011;6164;42.178;24.622;2023-04-25T06:06:08;6.28;;;5.18;;
12202;SDS011;6164;42.178;24.622;2023-04-25T06:08:34;6.93;;;4.82;;
12202;SDS011;6164;42.178;24.622;2023-04-25T06:11:02;7.28;;;5.38;;
12202;SDS011;6164;42.178;24.622;2023-04-25T06:13:30;5.20;;;4.63;;
12202;SDS011;6164;42.178;24.622;2023-04-25T06:15:57;6.43;;;5.38;;
12202;SDS011;6164;42.178;24.622;2023-04-25T06:18:24;7.45;;;5.45;;
12202;SDS011;6164;42.178;24.622;2023-04-25T06:20:51;4.63;;;4.22;;
12202;SDS011;6164;42.178;24.622;2023-04-25T06:23:17;5.10;;;4.60;;
12202;SDS011;6164;42.178;24.622;2023-04-25T06:25:44;5.20;;;4.70;;
12202;SDS011;6164;42.178;24.622;2023-04-25T06:28:11;6.07;;;5.28;;
12202;SDS011;6164;42.178;24.622;2023-04-25T06:30:39;7.32;;;5.35;;
12202;SDS011;6164;42.178;24.622;2023-04-25T06:33:06;8.13;;;5.10;;
12202;SDS011;6164;42.178;24.622;2023-04-25T06:35:33;8.52;;;5.88;;
12202;SDS011;6164;42.178;24.622;2023-04-25T06:38:00;8.60;;;5.65;;
12202;SDS011;6164;42.178;24.622;2023-04-25T06:40:27;7.95;;;5.72;;
12202;SDS011;6164;42.178;24.622;2023-04-25T06:42:53;8.38;;;6.00;;
12202;SDS011;6164;42.178;24.622;2023-04-25T06:45:20;7.72;;;5.32;;
12202;SDS011;6164;42.178;24.622;2023-04-25T06:47:48;6.38;;;5.03;;
12202;SDS011;6164;42.178;24.622;2023-04-25T06:50:15;5.07;;;4.55;;
12202;SDS011;6164;42.178;24.622;2023-04-25T06:52:41;6.13;;;5.20;;
12202;SDS011;6164;42.178;24.622;2023-04-25T06:55:08;5.50;;;4.90;;
12202;SDS011;6164;42.178;24.622;2023-04-25T06:57:35;7.90;;;4.20;;
12202;SDS011;6164;42.178;24.622;2023-04-25T07:00:02;7.45;;;4.53;;
12202;SDS011;6164;42.178;24.622;2023-04-25T07:02:33;4.60;;;4.18;;
12202;SDS011;6164;42.178;24.622;2023-04-25T07:08:28;4.03;;;3.30;;
12202;SDS011;6164;42.178;24.622;2023-04-25T07:10:55;3.53;;;3.22;;
12202;SDS011;6164;42.178;24.622;2023-04-25T07:13:22;4.88;;;3.05;;
12202;SDS011;6164;42.178;24.622;2023-04-25T07:15:48;3.78;;;3.47;;
12202;SDS011;6164;42.178;24.622;2023-04-25T07:18:15;3.90;;;3.60;;
12202;SDS011;6164;42.178;24.622;2023-04-25T07:20:42;18.50;;;5.80;;
12202;SDS011;6164;42.178;24.622;2023-04-25T07:23:09;4.72;;;3.67;;
12202;SDS011;6164;42.178;24.622;2023-04-25T07:25:37;4.45;;;3.97;;
12202;SDS011;6164;42.178;24.622;2023-04-25T07:28:04;4.68;;;4.07;;
12202;SDS011;6164;42.178;24.622;2023-04-25T07:30:31;3.97;;;3.67;;
12202;SDS011;6164;42.178;24.622;2023-04-25T07:32:58;4.72;;;3.33;;
12202;SDS011;6164;42.178;24.622;2023-04-25T07:35:25;4.18;;;3.78;;
12202;SDS011;6164;42.178;24.622;2023-04-25T07:37:52;4.55;;;4.03;;
12202;SDS011;6164;42.178;24.622;2023-04-25T07:40:19;4.80;;;4.32;;
12202;SDS011;6164;42.178;24.622;2023-04-25T07:42:47;4.75;;;3.83;;
12202;SDS011;6164;42.178;24.622;2023-04-25T07:45:13;5.30;;;4.80;;
12202;SDS011;6164;42.178;24.622;2023-04-25T07:47:40;4.00;;;3.60;;
12202;SDS011;6164;42.178;24.622;2023-04-25T07:50:07;4.07;;;3.67;;
12202;SDS011;6164;42.178;24.622;2023-04-25T07:52:36;4.18;;;3.78;;
12202;SDS011;6164;42.178;24.622;2023-04-25T07:55:02;4.30;;;3.90;;
12202;SDS011;6164;42.178;24.622;2023-04-25T07:57:30;3.25;;;2.95;;
12202;SDS011;6164;42.178;24.622;2023-04-25T07:59:58;4.50;;;3.20;;
12202;SDS011;6164;42.178;24.622;2023-04-25T08:02:25;3.78;;;3.38;;
12202;SDS011;6164;42.178;24.622;2023-04-25T08:04:53;4.32;;;3.92;;
12202;SDS011;6164;42.178;24.622;2023-04-25T08:07:20;5.28;;;4.10;;
12202;SDS011;6164;42.178;24.622;2023-04-25T08:09:46;4.60;;;3.83;;
12202;SDS011;6164;42.178;24.622;2023-04-25T08:12:13;4.32;;;3.92;;
12202;SDS011;6164;42.178;24.622;2023-04-25T08:14:40;5.15;;;4.40;;
12202;SDS011;6164;42.178;24.622;2023-04-25T08:17:08;5.95;;;5.45;;
12202;SDS011;6164;42.178;24.622;2023-04-25T08:19:35;5.90;;;5.40;;
12202;SDS011;6164;42.178;24.622;2023-04-25T08:22:02;6.65;;;6.05;;
12202;SDS011;6164;42.178;24.622;2023-04-25T08:24:29;5.50;;;4.85;;
12202;SDS011;6164;42.178;24.622;2023-04-25T08:26:56;5.40;;;4.90;;
12202;SDS011;6164;42.178;24.622;2023-04-25T08:29:24;4.95;;;4.55;;
12202;SDS011;6164;42.178;24.622;2023-04-25T08:31:51;5.72;;;5.07;;
12202;SDS011;6164;42.178;24.622;2023-04-25T08:34:19;5.15;;;4.65;;
12202;SDS011;6164;42.178;24.622;2023-04-25T08:36:46;12.02;;;5.43;;
12202;SDS011;6164;42.178;24.622;2023-04-25T08:39:12;4.95;;;4.35;;
12202;SDS011;6164;42.178;24.622;2023-04-25T08:41:40;5.47;;;4.72;;
12202;SDS011;6164;42.178;24.622;2023-04-25T08:44:11;4.88;;;4.45;;
12202;SDS011;6164;42.178;24.622;2023-04-25T08:46:38;4.30;;;3.90;;
12202;SDS011;6164;42.178;24.622;2023-04-25T08:49:05;5.10;;;4.50;;
12202;SDS011;6164;42.178;24.622;2023-04-25T08:51:39;4.53;;;4.13;;
12202;SDS011;6164;42.178;24.622;2023-04-25T08:54:11;5.32;;;4.40;;
12202;SDS011;6164;42.178;24.622;2023-04-25T08:56:41;5.13;;;4.40;;
12202;SDS011;6164;42.178;24.622;2023-04-25T08:59:09;4.85;;;4.35;;
12202;SDS011;6164;42.178;24.622;2023-04-25T09:01:37;4.30;;;3.90;;
12202;SDS011;6164;42.178;24.622;2023-04-25T09:04:04;5.63;;;3.83;;
12202;SDS011;6164;42.178;24.622;2023-04-25T09:06:31;4.40;;;3.97;;
12202;SDS011;6164;42.178;24.622;2023-04-25T09:09:02;4.68;;;3.53;;
12202;SDS011;6164;42.178;24.622;2023-04-25T09:11:31;3.95;;;3.60;;
12202;SDS011;6164;42.178;24.622;2023-04-25T09:14:11;3.97;;;3.65;;
12202;SDS011;6164;42.178;24.622;2023-04-25T09:16:57;4.05;;;3.67;;
12202;SDS011;6164;42.178;24.622;2023-04-25T09:19:25;4.13;;;3.42;;
12202;SDS011;6164;42.178;24.622;2023-04-25T09:21:55;4.50;;;4.10;;
12202;SDS011;6164;42.178;24.622;2023-04-25T09:24:34;3.70;;;3.40;;
12202;SDS011;6164;42.178;24.622;2023-04-25T09:27:08;4.22;;;3.83;;
12202;SDS011;6164;42.178;24.622;2023-04-25T09:29:37;4.20;;;3.38;;
12202;SDS011;6164;42.178;24.622;2023-04-25T09:32:17;4.38;;;3.72;;
12202;SDS011;6164;42.178;24.622;2023-04-25T09:34:46;4.70;;;3.67;;
12202;SDS011;6164;42.178;24.622;2023-04-25T09:37:17;4.03;;;3.63;;
12202;SDS011;6164;42.178;24.622;2023-04-25T09:39:47;4.50;;;4.10;;
12202;SDS011;6164;42.178;24.622;2023-04-25T09:42:14;6.35;;;4.43;;
12202;SDS011;6164;42.178;24.622;2023-04-25T09:44:42;4.80;;;4.30;;
12202;SDS011;6164;42.178;24.622;2023-04-25T09:47:10;4.13;;;3.80;;
12202;SDS011;6164;42.178;24.622;2023-04-25T09:49:39;4.47;;;4.07;;
12202;SDS011;6164;42.178;24.622;2023-04-25T09:52:07;5.00;;;3.97;;
12202;SDS011;6164;42.178;24.622;2023-04-25T09:54:34;4.07;;;3.70;;
12202;SDS011;6164;42.178;24.622;2023-04-25T09:57:03;4.40;;;3.50;;
12202;SDS011;6164;42.178;24.622;2023-04-25T09:59:38;2.95;;;2.50;;
12202;SDS011;6164;42.178;24.622;2023-04-25T10:02:07;3.55;;;2.50;;
12202;SDS011;6164;42.178;24.622;2023-04-25T10:04:35;5.05;;;3.22;;
12202;SDS011;6164;42.178;24.622;2023-04-25T10:07:03;4.68;;;4.00;;
12202;SDS011;6164;42.178;24.622;2023-04-25T10:09:32;4.50;;;4.10;;
12202;SDS011;6164;42.178;24.622;2023-04-25T10:12:00;4.45;;;3.60;;
12202;SDS011;6164;42.178;24.622;2023-04-25T10:14:28;3.92;;;3.22;;
12202;SDS011;6164;42.178;24.622;2023-04-25T10:16:56;3.85;;;3.30;;
12202;SDS011;6164;42.178;24.622;2023-04-25T10:19:24;3.17;;;2.88;;
12202;SDS011;6164;42.178;24.622;2023-04-25T10:21:52;3.83;;;2.30;;
12202;SDS011;6164;42.178;24.622;2023-04-25T10:24:24;2.55;;;2.35;;
12202;SDS011;6164;42.178;24.622;2023-04-25T10:26:52;2.60;;;2.40;;
12202;SDS011;6164;42.178;24.622;2023-04-25T10:29:22;2.70;;;2.50;;
12202;SDS011;6164;42.178;24.622;2023-04-25T10:31:51;5.18;;;2.22;;
12202;SDS011;6164;42.178;24.622;2023-04-25T10:34:18;2.45;;;2.25;;
12202;SDS011;6164;42.178;24.622;2023-04-25T10:36:50;3.08;;;2.65;;
12202;SDS011;6164;42.178;24.622;2023-04-25T10:39:21;4.82;;;2.80;;
12202;SDS011;6164;42.178;24.622;2023-04-25T10:41:53;2.50;;;2.28;;
12202;SDS011;6164;42.178;24.622;2023-04-25T10:44:22;2.47;;;2.28;;
12202;SDS011;6164;42.178;24.622;2023-04-25T10:46:49;2.40;;;2.20;;
12202;SDS011;6164;42.178;24.622;2023-04-25T10:49:29;2.53;;;2.33;;
12202;SDS011;6164;42.178;24.622;2023-04-25T10:54:46;2.90;;;2.60;;
12202;SDS011;6164;42.178;24.622;2023-04-25T11:00:06;4.07;;;3.40;;
12202;SDS011;6164;42.178;24.622;2023-04-25T11:02:40;5.00;;;2.92;;
12202;SDS011;6164;42.178;24.622;2023-04-25T11:05:09;3.15;;;2.83;;
12202;SDS011;6164;42.178;24.622;2023-04-25T11:07:42;2.50;;;2.30;;
12202;SDS011;6164;42.178;24.622;2023-04-25T11:10:15;3.10;;;2.80;;
12202;SDS011;6164;42.178;24.622;2023-04-25T11:12:42;2.80;;;2.55;;
12202;SDS011;6164;42.178;24.622;2023-04-25T11:15:09;4.05;;;2.60;;
12202;SDS011;6164;42.178;24.622;2023-04-25T11:17:36;3.70;;;2.50;;
12202;SDS011;6164;42.178;24.622;2023-04-25T11:20:04;3.90;;;2.75;;
12202;SDS011;6164;42.178;24.622;2023-04-25T11:22:37;2.78;;;2.03;;
12202;SDS011;6164;42.178;24.622;2023-04-25T11:25:06;2.50;;;2.30;;
12202;SDS011;6164;42.178;24.622;2023-04-25T11:27:33;2.45;;;2.13;;
12202;SDS011;6164;42.178;24.622;2023-04-25T11:30:10;2.28;;;2.08;;
12202;SDS011;6164;42.178;24.622;2023-04-25T11:32:39;2.28;;;2.08;;
12202;SDS011;6164;42.178;24.622;2023-04-25T11:35:06;2.28;;;2.08;;
12202;SDS011;6164;42.178;24.622;2023-04-25T11:37:33;2.88;;;1.92;;
12202;SDS011;6164;42.178;24.622;2023-04-25T11:40:01;4.32;;;2.05;;
12202;SDS011;6164;42.178;24.622;2023-04-25T11:42:31;2.30;;;2.10;;
12202;SDS011;6164;42.178;24.622;2023-04-25T11:44:58;3.95;;;2.22;;
12202;SDS011;6164;42.178;24.622;2023-04-25T11:47:27;1.85;;;1.75;;
12202;SDS011;6164;42.178;24.622;2023-04-25T11:49:55;2.10;;;1.90;;
12202;SDS011;6164;42.178;24.622;2023-04-25T11:52:23;2.35;;;1.85;;
12202;SDS011;6164;42.178;24.622;2023-04-25T11:54:50;1.85;;;1.75;;
12202;SDS011;6164;42.178;24.622;2023-04-25T11:57:19;2.90;;;2.20;;
12202;SDS011;6164;42.178;24.622;2023-04-25T11:59:46;14.88;;;2.88;;
12202;SDS011;6164;42.178;24.622;2023-04-25T12:02:23;2.78;;;1.80;;
12202;SDS011;6164;42.178;24.622;2023-04-25T12:04:51;3.30;;;2.00;;
12202;SDS011;6164;42.178;24.622;2023-04-25T12:07:18;2.30;;;2.10;;
12202;SDS011;6164;42.178;24.622;2023-04-25T12:09:51;3.72;;;1.75;;
12202;SDS011;6164;42.178;24.622;2023-04-25T12:12:20;2.35;;;2.00;;
12202;SDS011;6164;42.178;24.622;2023-04-25T12:14:47;2.33;;;1.80;;
12202;SDS011;6164;42.178;24.622;2023-04-25T12:17:14;2.85;;;1.70;;
12202;SDS011;6164;42.178;24.622;2023-04-25T12:19:41;2.85;;;1.92;;
12202;SDS011;6164;42.178;24.622;2023-04-25T12:22:18;2.35;;;1.90;;
12202;SDS011;6164;42.178;24.622;2023-04-25T12:24:46;2.00;;;1.80;;
12202;SDS011;6164;42.178;24.622;2023-04-25T12:27:13;2.10;;;1.80;;
12202;SDS011;6164;42.178;24.622;2023-04-25T12:29:51;1.88;;;1.77;;
12202;SDS011;6164;42.178;24.622;2023-04-25T12:32:19;1.60;;;1.50;;
12202;SDS011;6164;42.178;24.622;2023-04-25T12:34:46;2.47;;;1.65;;
12202;SDS011;6164;42.178;24.622;2023-04-25T12:37:13;2.25;;;1.73;;
12202;SDS011;6164;42.178;24.622;2023-04-25T12:39:40;2.40;;;1.85;;
12202;SDS011;6164;42.178;24.622;2023-04-25T12:42:07;1.92;;;1.83;;
12202;SDS011;6164;42.178;24.622;2023-04-25T12:44:36;1.90;;;1.80;;
12202;SDS011;6164;42.178;24.622;2023-04-25T12:47:05;2.22;;;1.92;;
12202;SDS011;6164;42.178;24.622;2023-04-25T12:49:31;1.88;;;1.77;;
12202;SDS011;6164;42.178;24.622;2023-04-25T12:51:59;1.65;;;1.55;;
12202;SDS011;6164;42.178;24.622;2023-04-25T12:54:26;3.03;;;1.85;;
12202;SDS011;6164;42.178;24.622;2023-04-25T12:56:52;1.63;;;1.52;;
12202;SDS011;6164;42.178;24.622;2023-04-25T12:59:20;7.03;;;2.20;;
12202;SDS011;6164;42.178;24.622;2023-04-25T13:01:47;6.13;;;2.25;;
12202;SDS011;6164;42.178;24.622;2023-04-25T13:04:15;2.70;;;2.33;;
12202;SDS011;6164;42.178;24.622;2023-04-25T13:06:42;3.70;;;2.53;;
12202;SDS011;6164;42.178;24.622;2023-04-25T13:09:09;2.22;;;2.03;;
12202;SDS011;6164;42.178;24.622;2023-04-25T13:11:37;2.00;;;1.90;;
12202;SDS011;6164;42.178;24.622;2023-04-25T13:14:04;2.08;;;1.80;;
12202;SDS011;6164;42.178;24.622;2023-04-25T13:16:31;3.05;;;1.70;;
12202;SDS011;6164;42.178;24.622;2023-04-25T13:18:58;2.17;;;1.75;;
12202;SDS011;6164;42.178;24.622;2023-04-25T13:21:26;2.35;;;1.90;;
12202;SDS011;6164;42.178;24.622;2023-04-25T13:23:53;2.45;;;2.13;;
12202;SDS011;6164;42.178;24.622;2023-04-25T13:26:19;2.28;;;1.73;;
12202;SDS011;6164;42.178;24.622;2023-04-25T13:28:46;2.15;;;1.95;;
12202;SDS011;6164;42.178;24.622;2023-04-25T13:31:13;2.22;;;1.98;;
12202;SDS011;6164;42.178;24.622;2023-04-25T13:33:40;1.70;;;1.60;;
12202;SDS011;6164;42.178;24.622;2023-04-25T13:36:06;4.25;;;1.60;;
12202;SDS011;6164;42.178;24.622;2023-04-25T13:38:34;1.88;;;1.70;;
12202;SDS011;6164;42.178;24.622;2023-04-25T13:41:01;2.78;;;1.73;;
12202;SDS011;6164;42.178;24.622;2023-04-25T13:43:28;1.90;;;1.50;;
12202;SDS011;6164;42.178;24.622;2023-04-25T13:45:55;1.45;;;1.30;;
12202;SDS011;6164;42.178;24.622;2023-04-25T13:48:21;1.73;;;1.40;;
12202;SDS011;6164;42.178;24.622;2023-04-25T13:50:50;1.50;;;1.40;;
12202;SDS011;6164;42.178;24.622;2023-04-25T13:53:17;1.60;;;1.45;;
12202;SDS011;6164;42.178;24.622;2023-04-25T13:55:45;1.88;;;1.48;;
12202;SDS011;6164;42.178;24.622;2023-04-25T13:58:12;2.28;;;1.60;;
12202;SDS011;6164;42.178;24.622;2023-04-25T14:00:38;2.20;;;1.50;;
12202;SDS011;6164;42.178;24.622;2023-04-25T14:03:08;1.80;;;1.70;;
12202;SDS011;6164;42.178;24.622;2023-04-25T14:05:35;1.50;;;1.40;;
12202;SDS011;6164;42.178;24.622;2023-04-25T14:08:04;1.95;;;1.70;;
12202;SDS011;6164;42.178;24.622;2023-04-25T14:10:32;1.60;;;1.50;;
12202;SDS011;6164;42.178;24.622;2023-04-25T14:13:01;1.40;;;1.30;;
12202;SDS011;6164;42.178;24.622;2023-04-25T14:15:28;1.45;;;1.35;;
12202;SDS011;6164;42.178;24.622;2023-04-25T14:17:56;2.17;;;1.63;;
12202;SDS011;6164;42.178;24.622;2023-04-25T14:20:23;2.95;;;1.52;;
12202;SDS011;6164;42.178;24.622;2023-04-25T14:22:50;3.92;;;1.70;;
12202;SDS011;6164;42.178;24.622;2023-04-25T14:25:17;8.00;;;3.33;;
12202;SDS011;6164;42.178;24.622;2023-04-25T14:27:43;2.10;;;2.00;;
12202;SDS011;6164;42.178;24.622;2023-04-25T14:30:16;1.60;;;1.40;;
12202;SDS011;6164;42.178;24.622;2023-04-25T14:32:43;2.10;;;1.70;;
12202;SDS011;6164;42.178;24.622;2023-04-25T14:35:10;1.92;;;1.27;;
12202;SDS011;6164;42.178;24.622;2023-04-25T14:37:37;1.95;;;1.73;;
12202;SDS011;6164;42.178;24.622;2023-04-25T14:40:04;1.50;;;1.40;;
12202;SDS011;6164;42.178;24.622;2023-04-25T14:42:33;3.25;;;1.45;;
12202;SDS011;6164;42.178;24.622;2023-04-25T14:44:59;3.00;;;1.73;;
12202;SDS011;6164;42.178;24.622;2023-04-25T14:47:27;1.20;;;1.10;;
12202;SDS011;6164;42.178;24.622;2023-04-25T14:49:54;1.23;;;1.13;;
12202;SDS011;6164;42.178;24.622;2023-04-25T14:52:22;1.20;;;1.10;;
12202;SDS011;6164;42.178;24.622;2023-04-25T14:54:49;1.30;;;1.20;;
12202;SDS011;6164;42.178;24.622;2023-04-25T14:57:16;1.95;;;1.00;;